sensor_id;sensor_type;location;lat;lon;timestamp;temperature;humidity
8214;DHT22;4148;47.974;7.824;2023-07-29T00:01:20;17.80;99.90
8214;DHT22;4148;47.974;7.824;2023-07-29T00:03:49;17.80;99.90
8214;DHT22;4148;47.974;7.824;2023-07-29T00:06:17;17.80;99.90
8214;DHT22;4148;47.974;7.824;2023-07-29T00:08:45;17.80;99.90
8214;DHT22;4148;47.974;7.824;2023-07-29T00:11:13;17.80;99.90
8214;DHT22;4148;47.974;7.824;2023-07-29T00:13:41;17.80;99.90
8214;DHT22;4148;47.974;7.824;2023-07-29T00:16:09;17.80;99.90
8214;DHT22;4148;47.974;7.824;2023-07-29T00:18:37;17.80;99.90
8214;DHT22;4148;47.974;7.824;2023-07-29T00:21:06;17.90;99.90
8214;DHT22;4148;47.974;7.824;2023-07-29T00:23:34;17.90;99.90
8214;DHT22;4148;47.974;7.824;2023-07-29T00:26:02;17.90;99.90
8214;DHT22;4148;47.974;7.824;2023-07-29T00:28:30;17.90;99.90
8214;DHT22;4148;47.974;7.824;2023-07-29T00:30:58;18.00;99.90
8214;DHT22;4148;47.974;7.824;2023-07-29T00:33:26;18.00;99.90
8214;DHT22;4148;47.974;7.824;2023-07-29T00:35:54;17.90;99.90
8214;DHT22;4148;47.974;7.824;2023-07-29T00:38:23;17.90;99.90
8214;DHT22;4148;47.974;7.824;2023-07-29T00:40:51;18.00;99.90
8214;DHT22;4148;47.974;7.824;2023-07-29T00:43:19;17.90;99.90
8214;DHT22;4148;47.974;7.824;2023-07-29T00:45:47;18.00;99.90
8214;DHT22;4148;47.974;7.824;2023-07-29T00:48:15;18.00;99.90
8214;DHT22;4148;47.974;7.824;2023-07-29T00:50:43;18.00;99.90
8214;DHT22;4148;47.974;7.824;2023-07-29T00:53:11;18.00;99.90
8214;DHT22;4148;47.974;7.824;2023-07-29T00:55:41;18.00;99.90
8214;DHT22;4148;47.974;7.824;2023-07-29T00:58:09;18.10;99.90
8214;DHT22;4148;47.974;7.824;2023-07-29T01:00:37;18.10;99.90
8214;DHT22;4148;47.974;7.824;2023-07-29T01:03:05;18.10;99.90
8214;DHT22;4148;47.974;7.824;2023-07-29T01:05:39;18.10;99.90
8214;DHT22;4148;47.974;7.824;2023-07-29T01:08:15;18.10;99.90
8214;DHT22;4148;47.974;7.824;2023-07-29T01:10:54;18.00;99.90
8214;DHT22;4148;47.974;7.824;2023-07-29T01:13:34;18.00;99.90
8214;DHT22;4148;47.974;7.824;2023-07-29T01:16:09;17.90;99.90
8214;DHT22;4148;47.974;7.824;2023-07-29T01:18:40;17.90;99.90
8214;DHT22;4148;47.974;7.824;2023-07-29T01:21:11;17.90;99.90
8214;DHT22;4148;47.974;7.824;2023-07-29T01:23:41;17.90;99.90
8214;DHT22;4148;47.974;7.824;2023-07-29T01:26:09;17.90;99.90
8214;DHT22;4148;47.974;7.824;2023-07-29T01:28:37;17.90;99.90
8214;DHT22;4148;47.974;7.824;2023-07-29T01:31:10;17.90;99.90
8214;DHT22;4148;47.974;7.824;2023-07-29T01:33:42;17.80;99.90
8214;DHT22;4148;47.974;7.824;2023-07-29T01:36:18;17.80;99.90
8214;DHT22;4148;47.974;7.824;2023-07-29T01:38:51;17.80;99.90
8214;DHT22;4148;47.974;7.824;2023-07-29T01:41:20;17.80;99.90
8214;DHT22;4148;47.974;7.824;2023-07-29T01:43:49;17.80;99.90
8214;DHT22;4148;47.974;7.824;2023-07-29T01:46:17;17.80;99.90
8214;DHT22;4148;47.974;7.824;2023-07-29T01:48:45;17.90;99.90
8214;DHT22;4148;47.974;7.824;2023-07-29T01:51:13;17.90;99.90
8214;DHT22;4148;47.974;7.824;2023-07-29T01:53:41;17.90;99.90
8214;DHT22;4148;47.974;7.824;2023-07-29T01:56:10;17.90;99.90
8214;DHT22;4148;47.974;7.824;2023-07-29T01:58:38;17.90;99.90
8214;DHT22;4148;47.974;7.824;2023-07-29T02:01:06;17.90;99.90
8214;DHT22;4148;47.974;7.824;2023-07-29T02:03:34;17.90;99.90
8214;DHT22;4148;47.974;7.824;2023-07-29T02:06:02;18.00;99.90
8214;DHT22;4148;47.974;7.824;2023-07-29T02:08:30;18.00;99.90
8214;DHT22;4148;47.974;7.824;2023-07-29T02:10:58;17.90;99.90
8214;DHT22;4148;47.974;7.824;2023-07-29T02:13:27;17.90;99.90
8214;DHT22;4148;47.974;7.824;2023-07-29T02:15:55;17.90;99.90
8214;DHT22;4148;47.974;7.824;2023-07-29T02:18:23;17.90;99.90
8214;DHT22;4148;47.974;7.824;2023-07-29T02:20:50;17.90;99.90
8214;DHT22;4148;47.974;7.824;2023-07-29T02:23:18;17.90;99.90
8214;DHT22;4148;47.974;7.824;2023-07-29T02:25:46;17.90;99.90
8214;DHT22;4148;47.974;7.824;2023-07-29T02:28:14;17.90;99.90
8214;DHT22;4148;47.974;7.824;2023-07-29T02:30:43;18.00;99.90
8214;DHT22;4148;47.974;7.824;2023-07-29T02:33:11;18.00;99.90
8214;DHT22;4148;47.974;7.824;2023-07-29T02:35:39;18.00;99.90
8214;DHT22;4148;47.974;7.824;2023-07-29T02:38:07;18.10;99.90
8214;DHT22;4148;47.974;7.824;2023-07-29T02:40:35;18.10;99.90
8214;DHT22;4148;47.974;7.824;2023-07-29T02:43:03;18.10;99.90
8214;DHT22;4148;47.974;7.824;2023-07-29T02:45:31;18.20;99.90
8214;DHT22;4148;47.974;7.824;2023-07-29T02:48:00;18.10;99.90
8214;DHT22;4148;47.974;7.824;2023-07-29T02:50:28;18.20;99.90
8214;DHT22;4148;47.974;7.824;2023-07-29T02:52:56;18.20;99.90
8214;DHT22;4148;47.974;7.824;2023-07-29T02:55:23;18.20;99.90
8214;DHT22;4148;47.974;7.824;2023-07-29T02:57:51;18.20;99.90
8214;DHT22;4148;47.974;7.824;2023-07-29T03:00:19;18.20;99.90
8214;DHT22;4148;47.974;7.824;2023-07-29T03:02:47;18.30;99.90
8214;DHT22;4148;47.974;7.824;2023-07-29T03:05:17;18.30;99.90
8214;DHT22;4148;47.974;7.824;2023-07-29T03:07:45;18.30;99.90
8214;DHT22;4148;47.974;7.824;2023-07-29T03:10:12;18.40;99.90
8214;DHT22;4148;47.974;7.824;2023-07-29T03:12:41;18.30;99.90
8214;DHT22;4148;47.974;7.824;2023-07-29T03:15:09;18.30;99.90
8214;DHT22;4148;47.974;7.824;2023-07-29T03:17:37;18.30;99.90
8214;DHT22;4148;47.974;7.824;2023-07-29T03:20:07;18.30;99.90
8214;DHT22;4148;47.974;7.824;2023-07-29T03:22:36;18.30;99.90
8214;DHT22;4148;47.974;7.824;2023-07-29T03:25:05;18.40;99.90
8214;DHT22;4148;47.974;7.824;2023-07-29T03:27:32;18.40;99.90
8214;DHT22;4148;47.974;7.824;2023-07-29T03:30:03;18.50;99.90
8214;DHT22;4148;47.974;7.824;2023-07-29T03:32:31;18.50;99.90
8214;DHT22;4148;47.974;7.824;2023-07-29T03:34:59;18.50;99.90
8214;DHT22;4148;47.974;7.824;2023-07-29T03:37:27;18.50;99.90
8214;DHT22;4148;47.974;7.824;2023-07-29T03:39:56;18.50;99.90
8214;DHT22;4148;47.974;7.824;2023-07-29T03:42:26;18.50;99.90
8214;DHT22;4148;47.974;7.824;2023-07-29T03:44:54;18.50;99.90
8214;DHT22;4148;47.974;7.824;2023-07-29T03:47:22;18.40;99.90
8214;DHT22;4148;47.974;7.824;2023-07-29T03:49:50;18.30;99.90
8214;DHT22;4148;47.974;7.824;2023-07-29T03:52:18;18.30;99.90
8214;DHT22;4148;47.974;7.824;2023-07-29T03:54:46;18.30;99.90
8214;DHT22;4148;47.974;7.824;2023-07-29T03:57:15;18.30;99.90
8214;DHT22;4148;47.974;7.824;2023-07-29T03:59:43;18.30;99.90
8214;DHT22;4148;47.974;7.824;2023-07-29T04:02:10;18.30;99.90
8214;DHT22;4148;47.974;7.824;2023-07-29T04:04:38;18.30;99.90
8214;DHT22;4148;47.974;7.824;2023-07-29T04:07:08;18.20;99.90
8214;DHT22;4148;47.974;7.824;2023-07-29T04:09:36;18.30;99.90
8214;DHT22;4148;47.974;7.824;2023-07-29T04:12:04;18.20;99.90
8214;DHT22;4148;47.974;7.824;2023-07-29T04:14:34;18.30;99.90
8214;DHT22;4148;47.974;7.824;2023-07-29T04:17:02;18.40;99.90
8214;DHT22;4148;47.974;7.824;2023-07-29T04:19:30;18.50;99.90
8214;DHT22;4148;47.974;7.824;2023-07-29T04:21:58;18.70;99.90
8214;DHT22;4148;47.974;7.824;2023-07-29T04:24:25;18.80;99.90
8214;DHT22;4148;47.974;7.824;2023-07-29T04:26:53;19.00;99.90
8214;DHT22;4148;47.974;7.824;2023-07-29T04:29:21;19.20;99.90
8214;DHT22;4148;47.974;7.824;2023-07-29T04:31:51;19.30;99.90
8214;DHT22;4148;47.974;7.824;2023-07-29T04:34:19;19.40;99.90
8214;DHT22;4148;47.974;7.824;2023-07-29T04:36:47;19.60;99.90
8214;DHT22;4148;47.974;7.824;2023-07-29T04:39:15;19.60;99.90
8214;DHT22;4148;47.974;7.824;2023-07-29T04:41:43;19.80;99.90
8214;DHT22;4148;47.974;7.824;2023-07-29T04:44:11;20.00;99.90
8214;DHT22;4148;47.974;7.824;2023-07-29T04:46:39;20.20;99.90
8214;DHT22;4148;47.974;7.824;2023-07-29T04:49:08;20.30;99.90
8214;DHT22;4148;47.974;7.824;2023-07-29T04:51:36;20.40;99.90
8214;DHT22;4148;47.974;7.824;2023-07-29T04:54:04;20.50;99.90
8214;DHT22;4148;47.974;7.824;2023-07-29T04:56:32;20.50;99.90
8214;DHT22;4148;47.974;7.824;2023-07-29T04:59:00;20.60;99.90
8214;DHT22;4148;47.974;7.824;2023-07-29T05:01:28;20.80;99.90
8214;DHT22;4148;47.974;7.824;2023-07-29T05:03:56;20.80;99.90
8214;DHT22;4148;47.974;7.824;2023-07-29T05:06:25;20.80;99.90
8214;DHT22;4148;47.974;7.824;2023-07-29T05:08:53;20.80;99.90
8214;DHT22;4148;47.974;7.824;2023-07-29T05:11:21;20.90;99.90
8214;DHT22;4148;47.974;7.824;2023-07-29T05:13:48;20.90;99.90
8214;DHT22;4148;47.974;7.824;2023-07-29T05:16:16;20.90;99.90
8214;DHT22;4148;47.974;7.824;2023-07-29T05:18:44;20.90;99.90
8214;DHT22;4148;47.974;7.824;2023-07-29T05:21:12;21.00;99.90
8214;DHT22;4148;47.974;7.824;2023-07-29T05:23:42;21.10;99.90
8214;DHT22;4148;47.974;7.824;2023-07-29T05:26:10;21.10;99.90
8214;DHT22;4148;47.974;7.824;2023-07-29T05:28:38;21.20;99.90
8214;DHT22;4148;47.974;7.824;2023-07-29T05:31:05;21.20;99.90
8214;DHT22;4148;47.974;7.824;2023-07-29T05:33:33;21.20;99.90
8214;DHT22;4148;47.974;7.824;2023-07-29T05:36:03;21.20;99.90
8214;DHT22;4148;47.974;7.824;2023-07-29T05:38:31;21.00;99.90
8214;DHT22;4148;47.974;7.824;2023-07-29T05:41:00;21.00;99.90
8214;DHT22;4148;47.974;7.824;2023-07-29T05:43:28;21.00;99.90
8214;DHT22;4148;47.974;7.824;2023-07-29T05:45:56;20.90;99.90
8214;DHT22;4148;47.974;7.824;2023-07-29T05:48:24;20.90;99.90
8214;DHT22;4148;47.974;7.824;2023-07-29T05:50:52;20.90;99.90
8214;DHT22;4148;47.974;7.824;2023-07-29T05:53:20;20.80;99.90
8214;DHT22;4148;47.974;7.824;2023-07-29T05:55:47;20.70;99.90
8214;DHT22;4148;47.974;7.824;2023-07-29T05:58:17;20.80;99.90
8214;DHT22;4148;47.974;7.824;2023-07-29T06:00:44;20.80;99.90
8214;DHT22;4148;47.974;7.824;2023-07-29T06:03:12;20.90;99.90
8214;DHT22;4148;47.974;7.824;2023-07-29T06:05:40;21.00;99.90
8214;DHT22;4148;47.974;7.824;2023-07-29T06:08:08;21.10;99.90
8214;DHT22;4148;47.974;7.824;2023-07-29T06:10:37;21.10;99.90
8214;DHT22;4148;47.974;7.824;2023-07-29T06:13:05;21.20;99.90
8214;DHT22;4148;47.974;7.824;2023-07-29T06:15:34;21.30;99.90
8214;DHT22;4148;47.974;7.824;2023-07-29T06:18:02;21.30;99.90
8214;DHT22;4148;47.974;7.824;2023-07-29T06:20:30;21.40;99.90
8214;DHT22;4148;47.974;7.824;2023-07-29T06:22:58;21.60;99.90
8214;DHT22;4148;47.974;7.824;2023-07-29T06:25:26;21.70;99.90
8214;DHT22;4148;47.974;7.824;2023-07-29T06:27:54;21.80;99.90
8214;DHT22;4148;47.974;7.824;2023-07-29T06:30:22;21.90;99.90
8214;DHT22;4148;47.974;7.824;2023-07-29T06:32:51;21.90;99.90
8214;DHT22;4148;47.974;7.824;2023-07-29T06:35:19;21.80;99.90
8214;DHT22;4148;47.974;7.824;2023-07-29T06:37:47;21.70;99.90
8214;DHT22;4148;47.974;7.824;2023-07-29T06:40:15;21.60;99.90
8214;DHT22;4148;47.974;7.824;2023-07-29T06:42:43;21.50;99.90
8214;DHT22;4148;47.974;7.824;2023-07-29T06:45:10;21.30;99.90
8214;DHT22;4148;47.974;7.824;2023-07-29T06:47:38;20.90;99.90
8214;DHT22;4148;47.974;7.824;2023-07-29T06:50:08;20.70;99.90
8214;DHT22;4148;47.974;7.824;2023-07-29T06:52:36;20.60;99.90
8214;DHT22;4148;47.974;7.824;2023-07-29T06:55:05;20.50;99.90
8214;DHT22;4148;47.974;7.824;2023-07-29T06:57:33;20.50;99.90
8214;DHT22;4148;47.974;7.824;2023-07-29T07:00:01;20.60;99.90
8214;DHT22;4148;47.974;7.824;2023-07-29T07:02:29;20.70;99.90
8214;DHT22;4148;47.974;7.824;2023-07-29T07:04:57;20.60;99.90
8214;DHT22;4148;47.974;7.824;2023-07-29T07:07:26;20.70;99.90
8214;DHT22;4148;47.974;7.824;2023-07-29T07:09:54;20.70;99.90
8214;DHT22;4148;47.974;7.824;2023-07-29T07:12:24;20.70;99.90
8214;DHT22;4148;47.974;7.824;2023-07-29T07:14:52;20.80;99.90
8214;DHT22;4148;47.974;7.824;2023-07-29T07:17:20;20.80;99.90
8214;DHT22;4148;47.974;7.824;2023-07-29T07:19:48;20.80;99.90
8214;DHT22;4148;47.974;7.824;2023-07-29T07:22:16;20.70;99.90
8214;DHT22;4148;47.974;7.824;2023-07-29T07:24:45;20.70;99.90
8214;DHT22;4148;47.974;7.824;2023-07-29T07:27:13;20.70;99.90
8214;DHT22;4148;47.974;7.824;2023-07-29T07:29:41;20.80;99.90
8214;DHT22;4148;47.974;7.824;2023-07-29T07:32:09;20.90;99.90
8214;DHT22;4148;47.974;7.824;2023-07-29T07:34:37;21.20;99.90
8214;DHT22;4148;47.974;7.824;2023-07-29T07:37:05;21.30;99.90
8214;DHT22;4148;47.974;7.824;2023-07-29T07:39:33;21.40;99.90
8214;DHT22;4148;47.974;7.824;2023-07-29T07:42:03;21.50;99.90
8214;DHT22;4148;47.974;7.824;2023-07-29T07:44:31;21.60;99.90
8214;DHT22;4148;47.974;7.824;2023-07-29T07:46:58;21.80;99.90
8214;DHT22;4148;47.974;7.824;2023-07-29T07:49:30;22.00;99.90
8214;DHT22;4148;47.974;7.824;2023-07-29T07:51:58;22.10;99.90
8214;DHT22;4148;47.974;7.824;2023-07-29T07:54:26;22.40;99.90
8214;DHT22;4148;47.974;7.824;2023-07-29T07:56:54;22.50;99.90
8214;DHT22;4148;47.974;7.824;2023-07-29T07:59:23;22.80;99.90
8214;DHT22;4148;47.974;7.824;2023-07-29T08:01:51;23.00;99.90
8214;DHT22;4148;47.974;7.824;2023-07-29T08:04:19;23.10;99.90
8214;DHT22;4148;47.974;7.824;2023-07-29T08:06:47;23.30;99.90
8214;DHT22;4148;47.974;7.824;2023-07-29T08:09:14;23.30;99.90
8214;DHT22;4148;47.974;7.824;2023-07-29T08:11:42;23.30;99.90
8214;DHT22;4148;47.974;7.824;2023-07-29T08:14:10;23.30;99.90
8214;DHT22;4148;47.974;7.824;2023-07-29T08:16:39;23.40;99.90
8214;DHT22;4148;47.974;7.824;2023-07-29T08:19:08;23.60;99.90
8214;DHT22;4148;47.974;7.824;2023-07-29T08:21:36;23.70;99.90
8214;DHT22;4148;47.974;7.824;2023-07-29T08:24:04;23.70;99.90
8214;DHT22;4148;47.974;7.824;2023-07-29T08:26:33;23.70;99.90
8214;DHT22;4148;47.974;7.824;2023-07-29T08:29:01;23.50;99.90
8214;DHT22;4148;47.974;7.824;2023-07-29T08:31:29;23.60;99.90
8214;DHT22;4148;47.974;7.824;2023-07-29T08:34:01;23.60;99.90
8214;DHT22;4148;47.974;7.824;2023-07-29T08:36:29;23.60;99.90
8214;DHT22;4148;47.974;7.824;2023-07-29T08:38:57;23.60;99.90
8214;DHT22;4148;47.974;7.824;2023-07-29T08:41:26;23.60;99.90
8214;DHT22;4148;47.974;7.824;2023-07-29T08:44:01;23.60;99.90
8214;DHT22;4148;47.974;7.824;2023-07-29T08:46:30;23.90;99.90
8214;DHT22;4148;47.974;7.824;2023-07-29T08:49:00;24.30;99.90
8214;DHT22;4148;47.974;7.824;2023-07-29T08:51:29;24.70;99.90
8214;DHT22;4148;47.974;7.824;2023-07-29T08:53:59;25.00;99.90
8214;DHT22;4148;47.974;7.824;2023-07-29T08:56:27;25.10;99.90
8214;DHT22;4148;47.974;7.824;2023-07-29T09:01:27;25.50;99.90
8214;DHT22;4148;47.974;7.824;2023-07-29T09:03:57;25.30;99.90
8214;DHT22;4148;47.974;7.824;2023-07-29T09:06:26;25.10;99.90
8214;DHT22;4148;47.974;7.824;2023-07-29T09:08:55;24.80;99.90
8214;DHT22;4148;47.974;7.824;2023-07-29T09:11:23;24.70;99.90
8214;DHT22;4148;47.974;7.824;2023-07-29T09:13:51;24.60;99.90
8214;DHT22;4148;47.974;7.824;2023-07-29T09:16:20;24.40;99.90
8214;DHT22;4148;47.974;7.824;2023-07-29T09:18:48;24.30;99.90
8214;DHT22;4148;47.974;7.824;2023-07-29T09:21:17;24.40;99.90
8214;DHT22;4148;47.974;7.824;2023-07-29T09:23:47;24.30;99.90
8214;DHT22;4148;47.974;7.824;2023-07-29T09:26:22;24.30;99.90
8214;DHT22;4148;47.974;7.824;2023-07-29T09:28:52;24.30;99.90
8214;DHT22;4148;47.974;7.824;2023-07-29T09:31:21;24.20;99.90
8214;DHT22;4148;47.974;7.824;2023-07-29T09:33:49;24.10;99.90
8214;DHT22;4148;47.974;7.824;2023-07-29T09:36:17;24.10;99.90
8214;DHT22;4148;47.974;7.824;2023-07-29T09:38:46;24.10;99.90
8214;DHT22;4148;47.974;7.824;2023-07-29T09:41:15;24.10;99.90
8214;DHT22;4148;47.974;7.824;2023-07-29T09:43:43;24.00;99.90
8214;DHT22;4148;47.974;7.824;2023-07-29T09:46:11;24.00;99.90
8214;DHT22;4148;47.974;7.824;2023-07-29T09:48:39;24.00;99.90
8214;DHT22;4148;47.974;7.824;2023-07-29T09:51:12;24.10;99.90
8214;DHT22;4148;47.974;7.824;2023-07-29T09:53:42;24.30;99.90
8214;DHT22;4148;47.974;7.824;2023-07-29T09:56:15;24.30;99.90
8214;DHT22;4148;47.974;7.824;2023-07-29T09:58:43;24.40;99.90
8214;DHT22;4148;47.974;7.824;2023-07-29T10:01:12;24.40;99.90
8214;DHT22;4148;47.974;7.824;2023-07-29T10:03:42;24.50;99.90
8214;DHT22;4148;47.974;7.824;2023-07-29T10:06:12;24.40;99.90
8214;DHT22;4148;47.974;7.824;2023-07-29T10:08:42;24.40;99.90
8214;DHT22;4148;47.974;7.824;2023-07-29T10:11:11;24.40;99.90
8214;DHT22;4148;47.974;7.824;2023-07-29T10:13:40;24.40;99.90
8214;DHT22;4148;47.974;7.824;2023-07-29T10:16:18;24.60;99.90
8214;DHT22;4148;47.974;7.824;2023-07-29T10:18:47;24.80;99.90
8214;DHT22;4148;47.974;7.824;2023-07-29T10:21:15;24.90;99.90
8214;DHT22;4148;47.974;7.824;2023-07-29T10:23:47;24.90;99.90
8214;DHT22;4148;47.974;7.824;2023-07-29T10:26:19;24.80;99.90
8214;DHT22;4148;47.974;7.824;2023-07-29T10:28:52;24.80;99.90
8214;DHT22;4148;47.974;7.824;2023-07-29T10:31:22;24.80;99.90
8214;DHT22;4148;47.974;7.824;2023-07-29T10:33:50;24.90;99.90
8214;DHT22;4148;47.974;7.824;2023-07-29T10:36:19;25.20;99.90
8214;DHT22;4148;47.974;7.824;2023-07-29T10:38:49;25.30;99.90
8214;DHT22;4148;47.974;7.824;2023-07-29T10:41:17;25.50;99.90
8214;DHT22;4148;47.974;7.824;2023-07-29T10:43:45;26.00;99.90
8214;DHT22;4148;47.974;7.824;2023-07-29T10:46:18;26.80;99.90
8214;DHT22;4148;47.974;7.824;2023-07-29T10:48:52;27.40;99.90
8214;DHT22;4148;47.974;7.824;2023-07-29T10:51:29;27.50;99.90
8214;DHT22;4148;47.974;7.824;2023-07-29T10:53:58;27.30;99.90
8214;DHT22;4148;47.974;7.824;2023-07-29T10:56:27;27.10;99.90
8214;DHT22;4148;47.974;7.824;2023-07-29T10:59:01;26.70;99.90
8214;DHT22;4148;47.974;7.824;2023-07-29T11:01:31;26.60;99.90
8214;DHT22;4148;47.974;7.824;2023-07-29T11:04:22;26.30;99.90
8214;DHT22;4148;47.974;7.824;2023-07-29T11:07:19;26.00;99.90
8214;DHT22;4148;47.974;7.824;2023-07-29T11:09:58;26.00;99.90
8214;DHT22;4148;47.974;7.824;2023-07-29T11:12:48;25.90;99.90
8214;DHT22;4148;47.974;7.824;2023-07-29T11:15:22;25.90;99.90
8214;DHT22;4148;47.974;7.824;2023-07-29T11:17:53;25.90;99.90
8214;DHT22;4148;47.974;7.824;2023-07-29T11:20:23;26.00;99.90
8214;DHT22;4148;47.974;7.824;2023-07-29T11:22:53;26.00;99.90
8214;DHT22;4148;47.974;7.824;2023-07-29T11:25:22;25.90;99.90
8214;DHT22;4148;47.974;7.824;2023-07-29T11:27:52;26.00;99.90
8214;DHT22;4148;47.974;7.824;2023-07-29T11:30:20;26.00;99.90
8214;DHT22;4148;47.974;7.824;2023-07-29T11:32:49;26.00;99.90
8214;DHT22;4148;47.974;7.824;2023-07-29T11:35:19;26.00;99.90
8214;DHT22;4148;47.974;7.824;2023-07-29T11:37:49;25.90;99.90
8214;DHT22;4148;47.974;7.824;2023-07-29T11:40:19;25.90;99.90
8214;DHT22;4148;47.974;7.824;2023-07-29T11:42:48;26.00;99.90
8214;DHT22;4148;47.974;7.824;2023-07-29T11:45:17;26.30;99.90
8214;DHT22;4148;47.974;7.824;2023-07-29T11:47:45;26.30;99.90
8214;DHT22;4148;47.974;7.824;2023-07-29T11:50:14;26.40;99.90
8214;DHT22;4148;47.974;7.824;2023-07-29T11:52:45;26.30;99.90
8214;DHT22;4148;47.974;7.824;2023-07-29T11:55:15;26.30;99.90
8214;DHT22;4148;47.974;7.824;2023-07-29T11:57:43;26.20;99.90
8214;DHT22;4148;47.974;7.824;2023-07-29T12:00:12;26.00;99.90
8214;DHT22;4148;47.974;7.824;2023-07-29T12:02:42;26.00;99.90
8214;DHT22;4148;47.974;7.824;2023-07-29T12:05:13;26.10;99.90
8214;DHT22;4148;47.974;7.824;2023-07-29T12:07:43;26.10;99.90
8214;DHT22;4148;47.974;7.824;2023-07-29T12:10:12;26.20;99.90
8214;DHT22;4148;47.974;7.824;2023-07-29T12:12:44;26.30;99.90
8214;DHT22;4148;47.974;7.824;2023-07-29T12:15:22;26.20;99.90
8214;DHT22;4148;47.974;7.824;2023-07-29T12:17:52;26.00;99.90
8214;DHT22;4148;47.974;7.824;2023-07-29T12:20:21;26.00;99.90
8214;DHT22;4148;47.974;7.824;2023-07-29T12:22:53;25.90;99.90
8214;DHT22;4148;47.974;7.824;2023-07-29T12:25:21;25.90;99.90
8214;DHT22;4148;47.974;7.824;2023-07-29T12:27:50;25.90;99.90
8214;DHT22;4148;47.974;7.824;2023-07-29T12:30:20;25.90;99.90
8214;DHT22;4148;47.974;7.824;2023-07-29T12:32:48;25.90;99.90
8214;DHT22;4148;47.974;7.824;2023-07-29T12:35:16;25.90;99.90
8214;DHT22;4148;47.974;7.824;2023-07-29T12:37:44;25.80;99.90
8214;DHT22;4148;47.974;7.824;2023-07-29T12:40:22;25.90;99.90
8214;DHT22;4148;47.974;7.824;2023-07-29T12:42:51;25.90;99.90
8214;DHT22;4148;47.974;7.824;2023-07-29T12:45:19;25.80;99.90
8214;DHT22;4148;47.974;7.824;2023-07-29T12:47:51;25.70;99.90
8214;DHT22;4148;47.974;7.824;2023-07-29T12:50:19;25.70;99.90
8214;DHT22;4148;47.974;7.824;2023-07-29T12:52:47;25.70;99.90
8214;DHT22;4148;47.974;7.824;2023-07-29T12:55:15;25.60;99.90
8214;DHT22;4148;47.974;7.824;2023-07-29T12:57:50;25.60;99.90
8214;DHT22;4148;47.974;7.824;2023-07-29T13:00:18;25.50;99.90
8214;DHT22;4148;47.974;7.824;2023-07-29T13:02:46;25.50;99.90
8214;DHT22;4148;47.974;7.824;2023-07-29T13:05:14;25.60;99.90
8214;DHT22;4148;47.974;7.824;2023-07-29T13:07:42;25.60;99.90
8214;DHT22;4148;47.974;7.824;2023-07-29T13:10:10;25.50;99.90
8214;DHT22;4148;47.974;7.824;2023-07-29T13:12:39;25.40;99.90
8214;DHT22;4148;47.974;7.824;2023-07-29T13:15:09;25.40;99.90
8214;DHT22;4148;47.974;7.824;2023-07-29T13:17:37;25.30;99.90
8214;DHT22;4148;47.974;7.824;2023-07-29T13:20:07;25.40;99.90
8214;DHT22;4148;47.974;7.824;2023-07-29T13:22:35;25.30;99.90
8214;DHT22;4148;47.974;7.824;2023-07-29T13:25:03;25.40;99.90
8214;DHT22;4148;47.974;7.824;2023-07-29T13:27:31;25.40;99.90
8214;DHT22;4148;47.974;7.824;2023-07-29T13:29:59;25.50;99.90
8214;DHT22;4148;47.974;7.824;2023-07-29T13:32:28;25.70;99.90
8214;DHT22;4148;47.974;7.824;2023-07-29T13:34:56;25.70;99.90
8214;DHT22;4148;47.974;7.824;2023-07-29T13:37:24;25.80;99.90
8214;DHT22;4148;47.974;7.824;2023-07-29T13:39:52;25.70;99.90
8214;DHT22;4148;47.974;7.824;2023-07-29T13:42:20;25.70;99.90
8214;DHT22;4148;47.974;7.824;2023-07-29T13:44:48;25.70;99.90
8214;DHT22;4148;47.974;7.824;2023-07-29T13:47:15;25.70;99.90
8214;DHT22;4148;47.974;7.824;2023-07-29T13:49:44;25.70;99.90
8214;DHT22;4148;47.974;7.824;2023-07-29T13:52:14;25.80;99.90
8214;DHT22;4148;47.974;7.824;2023-07-29T13:54:42;25.90;99.90
8214;DHT22;4148;47.974;7.824;2023-07-29T13:57:09;25.90;99.90
8214;DHT22;4148;47.974;7.824;2023-07-29T13:59:37;26.00;99.90
8214;DHT22;4148;47.974;7.824;2023-07-29T14:02:05;26.00;99.90
8214;DHT22;4148;47.974;7.824;2023-07-29T14:04:34;26.00;99.90
8214;DHT22;4148;47.974;7.824;2023-07-29T14:07:03;26.00;99.90
8214;DHT22;4148;47.974;7.824;2023-07-29T14:09:32;26.00;99.90
8214;DHT22;4148;47.974;7.824;2023-07-29T14:11:59;25.90;99.90
8214;DHT22;4148;47.974;7.824;2023-07-29T14:14:27;25.80;99.90
8214;DHT22;4148;47.974;7.824;2023-07-29T14:16:55;25.70;99.90
8214;DHT22;4148;47.974;7.824;2023-07-29T14:19:23;25.50;99.90
8214;DHT22;4148;47.974;7.824;2023-07-29T14:24:21;25.30;99.90
8214;DHT22;4148;47.974;7.824;2023-07-29T14:26:49;24.80;99.90
8214;DHT22;4148;47.974;7.824;2023-07-29T14:29:17;24.10;99.90
8214;DHT22;4148;47.974;7.824;2023-07-29T14:31:45;23.40;99.90
8214;DHT22;4148;47.974;7.824;2023-07-29T14:34:13;22.80;99.90
8214;DHT22;4148;47.974;7.824;2023-07-29T14:36:41;22.40;99.90
8214;DHT22;4148;47.974;7.824;2023-07-29T14:39:09;22.10;99.90
8214;DHT22;4148;47.974;7.824;2023-07-29T14:41:39;22.10;99.90
8214;DHT22;4148;47.974;7.824;2023-07-29T14:44:07;22.10;99.90
8214;DHT22;4148;47.974;7.824;2023-07-29T14:46:35;22.10;99.90
8214;DHT22;4148;47.974;7.824;2023-07-29T14:49:03;22.00;99.90
8214;DHT22;4148;47.974;7.824;2023-07-29T14:51:31;22.00;99.90
8214;DHT22;4148;47.974;7.824;2023-07-29T14:53:59;21.90;99.90
8214;DHT22;4148;47.974;7.824;2023-07-29T14:56:27;21.80;99.90
8214;DHT22;4148;47.974;7.824;2023-07-29T14:58:56;21.80;99.90
8214;DHT22;4148;47.974;7.824;2023-07-29T15:01:24;22.00;99.90
8214;DHT22;4148;47.974;7.824;2023-07-29T15:03:52;22.10;99.90
8214;DHT22;4148;47.974;7.824;2023-07-29T15:06:20;22.00;99.90
8214;DHT22;4148;47.974;7.824;2023-07-29T15:08:48;22.00;99.90
8214;DHT22;4148;47.974;7.824;2023-07-29T15:11:16;22.00;99.90
8214;DHT22;4148;47.974;7.824;2023-07-29T15:13:43;22.10;99.90
8214;DHT22;4148;47.974;7.824;2023-07-29T15:16:13;22.10;99.90
8214;DHT22;4148;47.974;7.824;2023-07-29T15:18:40;22.20;99.90
8214;DHT22;4148;47.974;7.824;2023-07-29T15:21:08;22.20;99.90
8214;DHT22;4148;47.974;7.824;2023-07-29T15:23:36;22.20;99.90
8214;DHT22;4148;47.974;7.824;2023-07-29T15:26:04;22.20;99.90
8214;DHT22;4148;47.974;7.824;2023-07-29T15:28:32;22.20;99.90
8214;DHT22;4148;47.974;7.824;2023-07-29T15:31:00;22.20;99.90
8214;DHT22;4148;47.974;7.824;2023-07-29T15:33:29;22.20;99.90
8214;DHT22;4148;47.974;7.824;2023-07-29T15:35:57;22.20;99.90
8214;DHT22;4148;47.974;7.824;2023-07-29T15:38:25;22.10;99.90
8214;DHT22;4148;47.974;7.824;2023-07-29T15:40:53;22.30;99.90
8214;DHT22;4148;47.974;7.824;2023-07-29T15:43:21;22.30;99.90
8214;DHT22;4148;47.974;7.824;2023-07-29T15:45:49;22.40;99.90
8214;DHT22;4148;47.974;7.824;2023-07-29T15:48:17;22.40;99.90
8214;DHT22;4148;47.974;7.824;2023-07-29T15:50:46;22.40;99.90
8214;DHT22;4148;47.974;7.824;2023-07-29T15:53:14;22.40;99.90
8214;DHT22;4148;47.974;7.824;2023-07-29T15:55:42;22.40;99.90
8214;DHT22;4148;47.974;7.824;2023-07-29T15:58:10;22.30;99.90
8214;DHT22;4148;47.974;7.824;2023-07-29T16:00:38;22.30;99.90
8214;DHT22;4148;47.974;7.824;2023-07-29T16:03:06;22.30;99.90
8214;DHT22;4148;47.974;7.824;2023-07-29T16:05:34;22.30;99.90
8214;DHT22;4148;47.974;7.824;2023-07-29T16:08:03;22.30;99.90
8214;DHT22;4148;47.974;7.824;2023-07-29T16:10:31;22.40;99.90
8214;DHT22;4148;47.974;7.824;2023-07-29T16:12:59;22.30;99.90
8214;DHT22;4148;47.974;7.824;2023-07-29T16:15:29;22.30;99.90
8214;DHT22;4148;47.974;7.824;2023-07-29T16:17:59;22.20;99.90